sensor_id;sensor_type;location;lat;lon;timestamp;temperature;humidity
52889;DHT22;41413;52.770;6.892;2023-05-10T00:01:50;14.40;99.90
52889;DHT22;41413;52.770;6.892;2023-05-10T00:04:16;14.30;99.90
52889;DHT22;41413;52.770;6.892;2023-05-10T00:06:43;14.20;99.90
52889;DHT22;41413;52.770;6.892;2023-05-10T00:09:10;14.20;99.90
52889;DHT22;41413;52.770;6.892;2023-05-10T00:11:36;14.20;99.90
52889;DHT22;41413;52.770;6.892;2023-05-10T00:14:03;14.10;99.90
52889;DHT22;41413;52.770;6.892;2023-05-10T00:16:30;14.10;99.90
52889;DHT22;41413;52.770;6.892;2023-05-10T00:18:57;14.00;99.90
52889;DHT22;41413;52.770;6.892;2023-05-10T00:21:23;14.00;99.90
52889;DHT22;41413;52.770;6.892;2023-05-10T00:23:50;14.00;99.90
52889;DHT22;41413;52.770;6.892;2023-05-10T00:26:16;13.90;99.90
52889;DHT22;41413;52.770;6.892;2023-05-10T00:28:43;13.90;99.90
52889;DHT22;41413;52.770;6.892;2023-05-10T00:31:10;13.90;99.90
52889;DHT22;41413;52.770;6.892;2023-05-10T00:33:37;13.90;99.90
52889;DHT22;41413;52.770;6.892;2023-05-10T00:36:03;13.90;99.90
52889;DHT22;41413;52.770;6.892;2023-05-10T00:38:30;13.80;99.90
52889;DHT22;41413;52.770;6.892;2023-05-10T00:40:57;13.80;99.90
52889;DHT22;41413;52.770;6.892;2023-05-10T00:43:24;13.70;99.90
52889;DHT22;41413;52.770;6.892;2023-05-10T00:45:51;13.80;99.90
52889;DHT22;41413;52.770;6.892;2023-05-10T00:48:18;13.80;99.90
52889;DHT22;41413;52.770;6.892;2023-05-10T00:50:45;13.70;99.90
52889;DHT22;41413;52.770;6.892;2023-05-10T00:53:12;13.70;99.90
52889;DHT22;41413;52.770;6.892;2023-05-10T00:55:39;13.60;99.90
52889;DHT22;41413;52.770;6.892;2023-05-10T00:58:05;13.60;99.90
52889;DHT22;41413;52.770;6.892;2023-05-10T01:00:33;13.60;99.90
52889;DHT22;41413;52.770;6.892;2023-05-10T01:03:00;13.60;99.90
52889;DHT22;41413;52.770;6.892;2023-05-10T01:05:27;13.60;99.90
52889;DHT22;41413;52.770;6.892;2023-05-10T01:07:54;13.50;99.90
52889;DHT22;41413;52.770;6.892;2023-05-10T01:10:22;13.60;99.90
52889;DHT22;41413;52.770;6.892;2023-05-10T01:12:50;13.50;99.90
52889;DHT22;41413;52.770;6.892;2023-05-10T01:15:17;13.50;99.90
52889;DHT22;41413;52.770;6.892;2023-05-10T01:17:46;13.60;99.90
52889;DHT22;41413;52.770;6.892;2023-05-10T01:20:14;13.60;99.90
52889;DHT22;41413;52.770;6.892;2023-05-10T01:22:58;13.50;99.90
52889;DHT22;41413;52.770;6.892;2023-05-10T01:28:42;13.50;99.90
52889;DHT22;41413;52.770;6.892;2023-05-10T01:31:30;13.50;99.90
52889;DHT22;41413;52.770;6.892;2023-05-10T01:34:09;13.40;99.90
52889;DHT22;41413;52.770;6.892;2023-05-10T01:37:04;13.50;99.90
52889;DHT22;41413;52.770;6.892;2023-05-10T01:39:40;13.50;99.90
52889;DHT22;41413;52.770;6.892;2023-05-10T01:42:11;13.30;99.90
52889;DHT22;41413;52.770;6.892;2023-05-10T01:44:53;13.40;99.90
52889;DHT22;41413;52.770;6.892;2023-05-10T01:47:44;13.50;99.90
52889;DHT22;41413;52.770;6.892;2023-05-10T01:50:19;13.50;99.90
52889;DHT22;41413;52.770;6.892;2023-05-10T01:52:53;13.40;99.90
52889;DHT22;41413;52.770;6.892;2023-05-10T01:55:24;13.40;99.90
52889;DHT22;41413;52.770;6.892;2023-05-10T01:58:02;13.40;99.90
52889;DHT22;41413;52.770;6.892;2023-05-10T02:00:29;13.30;99.90
52889;DHT22;41413;52.770;6.892;2023-05-10T02:02:59;13.30;99.90
52889;DHT22;41413;52.770;6.892;2023-05-10T02:05:29;13.30;99.90
52889;DHT22;41413;52.770;6.892;2023-05-10T02:07:58;13.30;99.90
52889;DHT22;41413;52.770;6.892;2023-05-10T02:10:26;13.30;99.90
52889;DHT22;41413;52.770;6.892;2023-05-10T02:12:53;13.30;99.90
52889;DHT22;41413;52.770;6.892;2023-05-10T02:15:23;13.40;99.90
52889;DHT22;41413;52.770;6.892;2023-05-10T02:17:53;13.30;99.90
52889;DHT22;41413;52.770;6.892;2023-05-10T02:20:22;13.30;99.90
52889;DHT22;41413;52.770;6.892;2023-05-10T02:22:52;13.30;99.90
52889;DHT22;41413;52.770;6.892;2023-05-10T02:25:20;13.30;99.90
52889;DHT22;41413;52.770;6.892;2023-05-10T02:27:48;13.30;99.90
52889;DHT22;41413;52.770;6.892;2023-05-10T02:30:15;13.30;99.90
52889;DHT22;41413;52.770;6.892;2023-05-10T02:32:44;13.30;99.90
52889;DHT22;41413;52.770;6.892;2023-05-10T02:35:12;13.30;99.90
52889;DHT22;41413;52.770;6.892;2023-05-10T02:37:39;13.30;99.90
52889;DHT22;41413;52.770;6.892;2023-05-10T02:40:07;13.20;99.90
52889;DHT22;41413;52.770;6.892;2023-05-10T02:42:37;13.30;99.90
52889;DHT22;41413;52.770;6.892;2023-05-10T02:45:10;13.20;99.90
52889;DHT22;41413;52.770;6.892;2023-05-10T02:47:38;13.20;99.90
52889;DHT22;41413;52.770;6.892;2023-05-10T02:50:05;13.20;99.90
52889;DHT22;41413;52.770;6.892;2023-05-10T02:52:50;13.20;99.90
52889;DHT22;41413;52.770;6.892;2023-05-10T02:55:25;13.20;99.90
52889;DHT22;41413;52.770;6.892;2023-05-10T02:57:58;13.10;99.90
52889;DHT22;41413;52.770;6.892;2023-05-10T03:00:25;13.10;99.90
52889;DHT22;41413;52.770;6.892;2023-05-10T03:02:52;13.20;99.90
52889;DHT22;41413;52.770;6.892;2023-05-10T03:05:19;13.20;99.90
52889;DHT22;41413;52.770;6.892;2023-05-10T03:07:47;13.10;99.90
52889;DHT22;41413;52.770;6.892;2023-05-10T03:10:14;13.20;99.90
52889;DHT22;41413;52.770;6.892;2023-05-10T03:16:12;13.20;99.90
52889;DHT22;41413;52.770;6.892;2023-05-10T03:18:56;13.10;99.90
52889;DHT22;41413;52.770;6.892;2023-05-10T03:21:29;13.10;99.90
52889;DHT22;41413;52.770;6.892;2023-05-10T03:24:06;13.00;99.90
52889;DHT22;41413;52.770;6.892;2023-05-10T03:26:34;13.00;99.90
52889;DHT22;41413;52.770;6.892;2023-05-10T03:29:02;13.10;99.90
52889;DHT22;41413;52.770;6.892;2023-05-10T03:31:30;13.10;99.90
52889;DHT22;41413;52.770;6.892;2023-05-10T03:33:57;13.10;99.90
52889;DHT22;41413;52.770;6.892;2023-05-10T03:36:23;13.10;99.90
52889;DHT22;41413;52.770;6.892;2023-05-10T03:38:50;13.10;99.90
52889;DHT22;41413;52.770;6.892;2023-05-10T03:41:17;13.00;99.90
52889;DHT22;41413;52.770;6.892;2023-05-10T03:43:43;13.10;99.90
52889;DHT22;41413;52.770;6.892;2023-05-10T03:46:10;13.10;99.90
52889;DHT22;41413;52.770;6.892;2023-05-10T03:48:37;13.00;99.90
52889;DHT22;41413;52.770;6.892;2023-05-10T03:51:04;13.00;99.90
52889;DHT22;41413;52.770;6.892;2023-05-10T03:53:30;13.10;99.90
52889;DHT22;41413;52.770;6.892;2023-05-10T03:55:57;13.10;99.90
52889;DHT22;41413;52.770;6.892;2023-05-10T03:58:24;13.00;99.90
52889;DHT22;41413;52.770;6.892;2023-05-10T04:00:51;13.00;99.90
52889;DHT22;41413;52.770;6.892;2023-05-10T04:03:18;12.90;99.90
52889;DHT22;41413;52.770;6.892;2023-05-10T04:05:45;13.00;99.90
52889;DHT22;41413;52.770;6.892;2023-05-10T04:08:12;13.00;99.90
52889;DHT22;41413;52.770;6.892;2023-05-10T04:10:38;13.10;99.90
52889;DHT22;41413;52.770;6.892;2023-05-10T04:13:06;13.10;99.90
52889;DHT22;41413;52.770;6.892;2023-05-10T04:15:32;13.00;99.90
52889;DHT22;41413;52.770;6.892;2023-05-10T04:17:59;13.00;99.90
52889;DHT22;41413;52.770;6.892;2023-05-10T04:20:26;12.90;99.90
52889;DHT22;41413;52.770;6.892;2023-05-10T04:22:53;13.00;99.90
52889;DHT22;41413;52.770;6.892;2023-05-10T04:25:20;13.10;99.90
52889;DHT22;41413;52.770;6.892;2023-05-10T04:27:47;13.10;99.90
52889;DHT22;41413;52.770;6.892;2023-05-10T04:30:13;13.10;99.90
52889;DHT22;41413;52.770;6.892;2023-05-10T04:32:40;13.00;99.90
52889;DHT22;41413;52.770;6.892;2023-05-10T04:35:07;13.00;99.90
52889;DHT22;41413;52.770;6.892;2023-05-10T04:37:36;12.90;99.90
52889;DHT22;41413;52.770;6.892;2023-05-10T04:40:03;13.00;99.90
52889;DHT22;41413;52.770;6.892;2023-05-10T04:42:30;13.00;99.90
52889;DHT22;41413;52.770;6.892;2023-05-10T04:44:56;12.90;99.90
52889;DHT22;41413;52.770;6.892;2023-05-10T04:47:23;12.90;99.90
52889;DHT22;41413;52.770;6.892;2023-05-10T04:49:50;12.80;99.90
52889;DHT22;41413;52.770;6.892;2023-05-10T04:52:17;12.90;99.90
52889;DHT22;41413;52.770;6.892;2023-05-10T04:54:44;12.90;99.90
52889;DHT22;41413;52.770;6.892;2023-05-10T04:57:11;12.80;99.90
52889;DHT22;41413;52.770;6.892;2023-05-10T04:59:37;12.80;99.90
52889;DHT22;41413;52.770;6.892;2023-05-10T05:02:05;12.90;99.90
52889;DHT22;41413;52.770;6.892;2023-05-10T05:04:32;12.80;99.90
52889;DHT22;41413;52.770;6.892;2023-05-10T05:06:59;12.80;99.90
52889;DHT22;41413;52.770;6.892;2023-05-10T05:09:25;12.80;99.90
52889;DHT22;41413;52.770;6.892;2023-05-10T05:11:52;12.90;99.90
52889;DHT22;41413;52.770;6.892;2023-05-10T05:14:19;12.80;99.90
52889;DHT22;41413;52.770;6.892;2023-05-10T05:16:47;12.80;99.90
52889;DHT22;41413;52.770;6.892;2023-05-10T05:19:13;12.80;99.90
52889;DHT22;41413;52.770;6.892;2023-05-10T05:21:40;12.80;99.90
52889;DHT22;41413;52.770;6.892;2023-05-10T05:24:08;12.70;99.90
52889;DHT22;41413;52.770;6.892;2023-05-10T05:26:34;12.70;99.90
52889;DHT22;41413;52.770;6.892;2023-05-10T05:29:01;12.80;99.90
52889;DHT22;41413;52.770;6.892;2023-05-10T05:31:28;12.70;99.90
52889;DHT22;41413;52.770;6.892;2023-05-10T05:33:55;12.80;99.90
52889;DHT22;41413;52.770;6.892;2023-05-10T05:36:22;12.70;99.90
52889;DHT22;41413;52.770;6.892;2023-05-10T05:38:49;12.80;99.90
52889;DHT22;41413;52.770;6.892;2023-05-10T05:41:16;12.80;99.90
52889;DHT22;41413;52.770;6.892;2023-05-10T05:43:42;12.80;99.90
52889;DHT22;41413;52.770;6.892;2023-05-10T05:46:09;12.70;99.90
52889;DHT22;41413;52.770;6.892;2023-05-10T05:48:36;12.80;99.90
52889;DHT22;41413;52.770;6.892;2023-05-10T05:51:03;12.80;99.90
52889;DHT22;41413;52.770;6.892;2023-05-10T05:53:33;12.80;99.90
52889;DHT22;41413;52.770;6.892;2023-05-10T05:55:59;12.80;99.90
52889;DHT22;41413;52.770;6.892;2023-05-10T05:58:26;12.80;99.90
52889;DHT22;41413;52.770;6.892;2023-05-10T06:00:53;12.70;99.90
52889;DHT22;41413;52.770;6.892;2023-05-10T06:03:20;12.80;99.90
52889;DHT22;41413;52.770;6.892;2023-05-10T06:05:47;12.80;99.90
52889;DHT22;41413;52.770;6.892;2023-05-10T06:08:14;12.80;99.90
52889;DHT22;41413;52.770;6.892;2023-05-10T06:10:41;12.80;99.90
52889;DHT22;41413;52.770;6.892;2023-05-10T06:13:08;12.90;99.90
52889;DHT22;41413;52.770;6.892;2023-05-10T06:15:35;12.90;99.90
52889;DHT22;41413;52.770;6.892;2023-05-10T06:18:01;12.90;99.90
52889;DHT22;41413;52.770;6.892;2023-05-10T06:20:28;12.90;99.90
52889;DHT22;41413;52.770;6.892;2023-05-10T06:22:58;12.90;99.90
52889;DHT22;41413;52.770;6.892;2023-05-10T06:25:25;12.90;99.90
52889;DHT22;41413;52.770;6.892;2023-05-10T06:27:51;13.00;99.90
52889;DHT22;41413;52.770;6.892;2023-05-10T06:30:24;12.90;99.90
52889;DHT22;41413;52.770;6.892;2023-05-10T06:32:54;13.00;99.90
52889;DHT22;41413;52.770;6.892;2023-05-10T06:35:21;13.10;99.90
52889;DHT22;41413;52.770;6.892;2023-05-10T06:37:48;13.10;99.90
52889;DHT22;41413;52.770;6.892;2023-05-10T06:40:15;13.20;99.90
52889;DHT22;41413;52.770;6.892;2023-05-10T06:42:42;13.20;99.90
52889;DHT22;41413;52.770;6.892;2023-05-10T06:45:11;13.20;99.90
52889;DHT22;41413;52.770;6.892;2023-05-10T06:47:38;13.20;99.90
52889;DHT22;41413;52.770;6.892;2023-05-10T06:50:05;13.30;99.90
52889;DHT22;41413;52.770;6.892;2023-05-10T06:52:32;13.40;99.90
52889;DHT22;41413;52.770;6.892;2023-05-10T06:54:59;13.20;99.90
52889;DHT22;41413;52.770;6.892;2023-05-10T06:57:26;13.30;99.90
52889;DHT22;41413;52.770;6.892;2023-05-10T06:59:58;13.30;99.90
52889;DHT22;41413;52.770;6.892;2023-05-10T07:02:25;13.30;99.90
52889;DHT22;41413;52.770;6.892;2023-05-10T07:04:52;13.30;99.90
52889;DHT22;41413;52.770;6.892;2023-05-10T07:07:19;13.30;99.90
52889;DHT22;41413;52.770;6.892;2023-05-10T07:09:45;13.40;99.90
52889;DHT22;41413;52.770;6.892;2023-05-10T07:12:12;13.30;99.90
52889;DHT22;41413;52.770;6.892;2023-05-10T07:14:41;13.40;99.90
52889;DHT22;41413;52.770;6.892;2023-05-10T07:17:08;13.40;99.90
52889;DHT22;41413;52.770;6.892;2023-05-10T07:19:35;13.50;99.90
52889;DHT22;41413;52.770;6.892;2023-05-10T07:22:02;13.60;99.90
52889;DHT22;41413;52.770;6.892;2023-05-10T07:24:29;13.60;99.90
52889;DHT22;41413;52.770;6.892;2023-05-10T07:26:56;13.60;99.90
52889;DHT22;41413;52.770;6.892;2023-05-10T07:29:23;13.60;99.90
52889;DHT22;41413;52.770;6.892;2023-05-10T07:31:49;13.60;99.90
52889;DHT22;41413;52.770;6.892;2023-05-10T07:34:16;13.50;99.90
52889;DHT22;41413;52.770;6.892;2023-05-10T07:36:43;13.60;99.90
52889;DHT22;41413;52.770;6.892;2023-05-10T07:39:10;13.50;99.90
52889;DHT22;41413;52.770;6.892;2023-05-10T07:41:41;13.60;99.90
52889;DHT22;41413;52.770;6.892;2023-05-10T07:44:08;13.50;99.90
52889;DHT22;41413;52.770;6.892;2023-05-10T07:46:35;13.50;99.90
52889;DHT22;41413;52.770;6.892;2023-05-10T07:49:02;13.50;99.90
52889;DHT22;41413;52.770;6.892;2023-05-10T07:51:28;13.50;99.90
52889;DHT22;41413;52.770;6.892;2023-05-10T07:53:55;13.60;99.90
52889;DHT22;41413;52.770;6.892;2023-05-10T07:56:23;13.50;99.90
52889;DHT22;41413;52.770;6.892;2023-05-10T07:58:51;13.60;99.90
52889;DHT22;41413;52.770;6.892;2023-05-10T08:01:18;13.60;99.90
52889;DHT22;41413;52.770;6.892;2023-05-10T08:03:45;13.70;99.90
52889;DHT22;41413;52.770;6.892;2023-05-10T08:06:12;13.80;99.90
52889;DHT22;41413;52.770;6.892;2023-05-10T08:08:39;13.90;99.90
52889;DHT22;41413;52.770;6.892;2023-05-10T08:11:06;13.90;99.90
52889;DHT22;41413;52.770;6.892;2023-05-10T08:13:33;14.00;99.90
52889;DHT22;41413;52.770;6.892;2023-05-10T08:15:59;14.00;99.90
52889;DHT22;41413;52.770;6.892;2023-05-10T08:18:27;14.00;99.90
52889;DHT22;41413;52.770;6.892;2023-05-10T08:20:54;14.10;99.90
52889;DHT22;41413;52.770;6.892;2023-05-10T08:23:20;14.20;99.90
52889;DHT22;41413;52.770;6.892;2023-05-10T08:25:47;14.30;99.90
52889;DHT22;41413;52.770;6.892;2023-05-10T08:28:14;14.30;99.90
52889;DHT22;41413;52.770;6.892;2023-05-10T08:30:41;14.30;99.90
52889;DHT22;41413;52.770;6.892;2023-05-10T08:33:07;14.40;99.90
52889;DHT22;41413;52.770;6.892;2023-05-10T08:35:34;14.40;99.90
52889;DHT22;41413;52.770;6.892;2023-05-10T08:38:01;14.40;99.90
52889;DHT22;41413;52.770;6.892;2023-05-10T08:40:28;14.40;99.90
52889;DHT22;41413;52.770;6.892;2023-05-10T08:43:07;14.40;99.90
52889;DHT22;41413;52.770;6.892;2023-05-10T08:45:40;14.30;99.90
52889;DHT22;41413;52.770;6.892;2023-05-10T08:48:09;14.20;99.90
52889;DHT22;41413;52.770;6.892;2023-05-10T08:50:37;14.20;99.90
52889;DHT22;41413;52.770;6.892;2023-05-10T08:53:06;14.10;99.90
52889;DHT22;41413;52.770;6.892;2023-05-10T08:55:36;14.10;99.90
52889;DHT22;41413;52.770;6.892;2023-05-10T08:58:06;14.10;99.90
52889;DHT22;41413;52.770;6.892;2023-05-10T09:00:34;14.20;99.90
52889;DHT22;41413;52.770;6.892;2023-05-10T09:03:03;14.30;99.90
52889;DHT22;41413;52.770;6.892;2023-05-10T09:05:30;14.20;99.90
52889;DHT22;41413;52.770;6.892;2023-05-10T09:07:57;14.20;99.90
52889;DHT22;41413;52.770;6.892;2023-05-10T09:10:27;14.20;99.90
52889;DHT22;41413;52.770;6.892;2023-05-10T09:12:56;14.20;99.90
52889;DHT22;41413;52.770;6.892;2023-05-10T09:15:25;14.40;99.90
52889;DHT22;41413;52.770;6.892;2023-05-10T09:17:52;14.50;99.90
52889;DHT22;41413;52.770;6.892;2023-05-10T09:20:19;14.40;99.90
52889;DHT22;41413;52.770;6.892;2023-05-10T09:22:46;14.50;99.90
52889;DHT22;41413;52.770;6.892;2023-05-10T09:25:16;14.50;99.90
52889;DHT22;41413;52.770;6.892;2023-05-10T09:27:45;14.40;99.90
52889;DHT22;41413;52.770;6.892;2023-05-10T09:30:29;14.40;99.90
52889;DHT22;41413;52.770;6.892;2023-05-10T09:32:57;14.40;99.90
52889;DHT22;41413;52.770;6.892;2023-05-10T09:35:26;14.40;99.90
52889;DHT22;41413;52.770;6.892;2023-05-10T09:37:57;14.30;99.90
52889;DHT22;41413;52.770;6.892;2023-05-10T09:40:25;14.40;99.90
52889;DHT22;41413;52.770;6.892;2023-05-10T09:45:24;14.50;99.90
52889;DHT22;41413;52.770;6.892;2023-05-10T09:47:51;14.60;99.90
52889;DHT22;41413;52.770;6.892;2023-05-10T09:50:19;14.60;99.90
52889;DHT22;41413;52.770;6.892;2023-05-10T09:52:50;14.70;99.90
52889;DHT22;41413;52.770;6.892;2023-05-10T09:55:21;14.80;99.90
52889;DHT22;41413;52.770;6.892;2023-05-10T09:57:49;14.90;99.90
52889;DHT22;41413;52.770;6.892;2023-05-10T10:00:18;15.00;99.90
52889;DHT22;41413;52.770;6.892;2023-05-10T10:02:46;15.10;99.90
52889;DHT22;41413;52.770;6.892;2023-05-10T10:05:14;15.20;99.90
52889;DHT22;41413;52.770;6.892;2023-05-10T10:07:41;15.30;99.90
52889;DHT22;41413;52.770;6.892;2023-05-10T10:10:08;15.40;99.90
52889;DHT22;41413;52.770;6.892;2023-05-10T10:12:39;15.40;99.90
52889;DHT22;41413;52.770;6.892;2023-05-10T10:15:08;15.50;99.90
52889;DHT22;41413;52.770;6.892;2023-05-10T10:17:36;15.60;99.90
52889;DHT22;41413;52.770;6.892;2023-05-10T10:20:04;15.50;99.90
52889;DHT22;41413;52.770;6.892;2023-05-10T10:22:31;15.40;99.90
52889;DHT22;41413;52.770;6.892;2023-05-10T10:24:58;15.40;99.90
52889;DHT22;41413;52.770;6.892;2023-05-10T10:27:41;15.30;99.90
52889;DHT22;41413;52.770;6.892;2023-05-10T10:35:54;15.30;99.90
52889;DHT22;41413;52.770;6.892;2023-05-10T10:38:21;15.40;99.90
52889;DHT22;41413;52.770;6.892;2023-05-10T10:41:02;15.50;99.90
52889;DHT22;41413;52.770;6.892;2023-05-10T10:43:29;15.40;99.90
52889;DHT22;41413;52.770;6.892;2023-05-10T10:49:07;15.40;99.90
52889;DHT22;41413;52.770;6.892;2023-05-10T10:51:39;15.40;99.90
52889;DHT22;41413;52.770;6.892;2023-05-10T10:54:12;15.40;99.90
52889;DHT22;41413;52.770;6.892;2023-05-10T10:56:39;15.50;99.90
52889;DHT22;41413;52.770;6.892;2023-05-10T10:59:05;15.40;99.90
52889;DHT22;41413;52.770;6.892;2023-05-10T11:01:34;15.30;99.90
52889;DHT22;41413;52.770;6.892;2023-05-10T11:09:07;15.40;99.90
52889;DHT22;41413;52.770;6.892;2023-05-10T11:11:35;15.30;99.90
52889;DHT22;41413;52.770;6.892;2023-05-10T11:14:04;15.10;99.90
52889;DHT22;41413;52.770;6.892;2023-05-10T11:16:44;15.10;99.90
52889;DHT22;41413;52.770;6.892;2023-05-10T11:19:12;15.00;99.90
52889;DHT22;41413;52.770;6.892;2023-05-10T11:21:51;15.10;99.90
52889;DHT22;41413;52.770;6.892;2023-05-10T11:24:22;15.20;99.90
52889;DHT22;41413;52.770;6.892;2023-05-10T11:26:53;15.30;99.90
52889;DHT22;41413;52.770;6.892;2023-05-10T11:29:20;15.40;99.90
52889;DHT22;41413;52.770;6.892;2023-05-10T11:31:48;15.60;99.90
52889;DHT22;41413;52.770;6.892;2023-05-10T11:34:31;15.60;99.90
52889;DHT22;41413;52.770;6.892;2023-05-10T11:37:00;15.70;99.90
52889;DHT22;41413;52.770;6.892;2023-05-10T11:39:29;15.80;99.90
52889;DHT22;41413;52.770;6.892;2023-05-10T11:41:57;15.80;99.90
52889;DHT22;41413;52.770;6.892;2023-05-10T11:44:29;15.90;99.90
52889;DHT22;41413;52.770;6.892;2023-05-10T11:47:01;15.90;99.90
52889;DHT22;41413;52.770;6.892;2023-05-10T11:49:28;15.90;99.90
52889;DHT22;41413;52.770;6.892;2023-05-10T11:52:06;15.90;99.90
52889;DHT22;41413;52.770;6.892;2023-05-10T11:54:33;16.00;99.90
52889;DHT22;41413;52.770;6.892;2023-05-10T11:57:01;16.00;99.90
52889;DHT22;41413;52.770;6.892;2023-05-10T11:59:28;16.00;99.90
52889;DHT22;41413;52.770;6.892;2023-05-10T12:01:55;16.10;99.90
52889;DHT22;41413;52.770;6.892;2023-05-10T12:04:22;16.10;99.90
52889;DHT22;41413;52.770;6.892;2023-05-10T12:06:49;16.10;99.90
52889;DHT22;41413;52.770;6.892;2023-05-10T12:09:15;16.10;99.90
52889;DHT22;41413;52.770;6.892;2023-05-10T12:11:48;16.20;99.90
52889;DHT22;41413;52.770;6.892;2023-05-10T12:14:15;16.10;99.90
52889;DHT22;41413;52.770;6.892;2023-05-10T12:16:43;16.20;99.90
52889;DHT22;41413;52.770;6.892;2023-05-10T12:19:10;16.20;99.90
52889;DHT22;41413;52.770;6.892;2023-05-10T12:21:37;16.20;99.90
52889;DHT22;41413;52.770;6.892;2023-05-10T12:24:05;16.10;99.90
52889;DHT22;41413;52.770;6.892;2023-05-10T12:26:32;16.10;99.90
52889;DHT22;41413;52.770;6.892;2023-05-10T12:29:12;16.10;99.90
52889;DHT22;41413;52.770;6.892;2023-05-10T12:31:56;16.00;99.90
52889;DHT22;41413;52.770;6.892;2023-05-10T12:34:30;15.90;99.90
52889;DHT22;41413;52.770;6.892;2023-05-10T12:36:58;15.90;99.90
52889;DHT22;41413;52.770;6.892;2023-05-10T12:39:25;15.80;99.90
52889;DHT22;41413;52.770;6.892;2023-05-10T12:41:52;15.70;99.90
52889;DHT22;41413;52.770;6.892;2023-05-10T12:44:19;15.70;99.90
52889;DHT22;41413;52.770;6.892;2023-05-10T12:46:45;15.70;99.90
52889;DHT22;41413;52.770;6.892;2023-05-10T12:49:12;15.70;99.90
52889;DHT22;41413;52.770;6.892;2023-05-10T12:51:39;15.70;99.90
52889;DHT22;41413;52.770;6.892;2023-05-10T12:54:05;15.70;99.90
52889;DHT22;41413;52.770;6.892;2023-05-10T12:56:32;15.70;99.90
52889;DHT22;41413;52.770;6.892;2023-05-10T12:58:59;15.70;99.90
52889;DHT22;41413;52.770;6.892;2023-05-10T13:01:25;15.80;99.90
52889;DHT22;41413;52.770;6.892;2023-05-10T13:03:52;15.80;99.90
52889;DHT22;41413;52.770;6.892;2023-05-10T13:06:19;15.90;99.90
52889;DHT22;41413;52.770;6.892;2023-05-10T13:08:46;15.80;99.90
52889;DHT22;41413;52.770;6.892;2023-05-10T13:11:12;15.90;99.90
52889;DHT22;41413;52.770;6.892;2023-05-10T13:13:43;16.00;99.90
52889;DHT22;41413;52.770;6.892;2023-05-10T13:16:09;16.00;99.90
52889;DHT22;41413;52.770;6.892;2023-05-10T13:18:36;16.20;99.90
52889;DHT22;41413;52.770;6.892;2023-05-10T13:21:03;16.30;99.90
52889;DHT22;41413;52.770;6.892;2023-05-10T13:23:31;16.30;99.90
52889;DHT22;41413;52.770;6.892;2023-05-10T13:25:58;16.40;99.90
52889;DHT22;41413;52.770;6.892;2023-05-10T13:28:25;16.40;99.90
52889;DHT22;41413;52.770;6.892;2023-05-10T13:30:52;16.50;99.90
52889;DHT22;41413;52.770;6.892;2023-05-10T13:33:19;16.50;99.90
52889;DHT22;41413;52.770;6.892;2023-05-10T13:35:46;16.50;99.90
52889;DHT22;41413;52.770;6.892;2023-05-10T13:38:13;16.60;99.90
52889;DHT22;41413;52.770;6.892;2023-05-10T13:40:40;16.60;99.90
52889;DHT22;41413;52.770;6.892;2023-05-10T13:43:06;16.60;99.90
52889;DHT22;41413;52.770;6.892;2023-05-10T13:45:33;16.70;99.90
52889;DHT22;41413;52.770;6.892;2023-05-10T13:48:00;16.80;99.90
52889;DHT22;41413;52.770;6.892;2023-05-10T13:50:26;16.80;99.90
52889;DHT22;41413;52.770;6.892;2023-05-10T13:52:53;16.80;99.90
52889;DHT22;41413;52.770;6.892;2023-05-10T13:55:20;16.90;99.90
52889;DHT22;41413;52.770;6.892;2023-05-10T13:57:47;16.90;99.90
52889;DHT22;41413;52.770;6.892;2023-05-10T14:00:14;16.90;99.90
52889;DHT22;41413;52.770;6.892;2023-05-10T14:02:41;17.00;99.90
52889;DHT22;41413;52.770;6.892;2023-05-10T14:05:08;16.90;99.90
52889;DHT22;41413;52.770;6.892;2023-05-10T14:07:35;17.00;99.90
52889;DHT22;41413;52.770;6.892;2023-05-10T14:10:02;17.00;99.90
52889;DHT22;41413;52.770;6.892;2023-05-10T14:12:29;17.00;99.90
52889;DHT22;41413;52.770;6.892;2023-05-10T14:14:56;17.00;99.90
52889;DHT22;41413;52.770;6.892;2023-05-10T14:17:24;17.00;99.90
52889;DHT22;41413;52.770;6.892;2023-05-10T14:19:52;17.00;99.90
52889;DHT22;41413;52.770;6.892;2023-05-10T14:22:19;17.00;99.90
52889;DHT22;41413;52.770;6.892;2023-05-10T14:24:45;16.90;99.90
52889;DHT22;41413;52.770;6.892;2023-05-10T14:27:13;16.90;99.90
52889;DHT22;41413;52.770;6.892;2023-05-10T14:29:40;16.90;99.90
52889;DHT22;41413;52.770;6.892;2023-05-10T14:32:07;16.80;99.90
52889;DHT22;41413;52.770;6.892;2023-05-10T14:34:34;16.90;99.90
52889;DHT22;41413;52.770;6.892;2023-05-10T14:37:00;16.90;99.90
52889;DHT22;41413;52.770;6.892;2023-05-10T14:39:27;16.80;99.90
52889;DHT22;41413;52.770;6.892;2023-05-10T14:41:56;16.90;99.90
52889;DHT22;41413;52.770;6.892;2023-05-10T14:44:23;16.90;99.90
52889;DHT22;41413;52.770;6.892;2023-05-10T14:46:50;16.90;99.90
52889;DHT22;41413;52.770;6.892;2023-05-10T14:49:17;16.90;99.90
52889;DHT22;41413;52.770;6.892;2023-05-10T14:51:43;16.90;99.90
52889;DHT22;41413;52.770;6.892;2023-05-10T14:54:11;16.90;99.90
52889;DHT22;41413;52.770;6.892;2023-05-10T14:56:38;16.80;99.90
52889;DHT22;41413;52.770;6.892;2023-05-10T14:59:04;16.80;99.90
52889;DHT22;41413;52.770;6.892;2023-05-10T15:01:31;16.80;99.90
52889;DHT22;41413;52.770;6.892;2023-05-10T15:03:59;16.90;99.90
52889;DHT22;41413;52.770;6.892;2023-05-10T15:06:31;16.90;99.90
52889;DHT22;41413;52.770;6.892;2023-05-10T15:08:58;16.80;99.90
52889;DHT22;41413;52.770;6.892;2023-05-10T15:11:25;16.80;99.90
52889;DHT22;41413;52.770;6.892;2023-05-10T15:13:52;16.80;99.90
52889;DHT22;41413;52.770;6.892;2023-05-10T15:16:19;16.80;99.90
52889;DHT22;41413;52.770;6.892;2023-05-10T15:18:46;16.70;99.90
52889;DHT22;41413;52.770;6.892;2023-05-10T15:21:12;16.80;99.90
52889;DHT22;41413;52.770;6.892;2023-05-10T15:23:39;16.70;99.90
52889;DHT22;41413;52.770;6.892;2023-05-10T15:26:06;16.60;99.90
52889;DHT22;41413;52.770;6.892;2023-05-10T15:28:32;16.60;99.90
52889;DHT22;41413;52.770;6.892;2023-05-10T15:31:00;16.70;99.90
52889;DHT22;41413;52.770;6.892;2023-05-10T15:33:26;16.60;99.90
52889;DHT22;41413;52.770;6.892;2023-05-10T15:35:53;16.60;99.90
52889;DHT22;41413;52.770;6.892;2023-05-10T15:38:20;16.60;99.90
52889;DHT22;41413;52.770;6.892;2023-05-10T15:40:47;16.60;99.90
52889;DHT22;41413;52.770;6.892;2023-05-10T15:43:14;16.60;99.90
52889;DHT22;41413;52.770;6.892;2023-05-10T15:45:41;16.60;99.90
52889;DHT22;41413;52.770;6.892;2023-05-10T15:48:08;16.60;99.90
52889;DHT22;41413;52.770;6.892;2023-05-10T15:50:34;16.50;99.90
52889;DHT22;41413;52.770;6.892;2023-05-10T15:53:01;16.50;99.90
52889;DHT22;41413;52.770;6.892;2023-05-10T15:55:28;16.50;99.90
52889;DHT22;41413;52.770;6.892;2023-05-10T15:57:55;16.50;99.90
52889;DHT22;41413;52.770;6.892;2023-05-10T16:00:21;16.50;99.90